Time;durP1;ratioP1;P1;durP2;ratioP2;P2;SDS_P1;SDS_P2;PMS_P1;PMS_P2;Temp;Humidity;BMP_temperature;BMP_pressure;BME280_temperature;BME280_humidity;BME280_pressure;Samples;Min_cycle;Max_cycle;Signal;HPM_P1;HPM_P2
2022/04/01 00:02:10;;;;;;;15.10;4.47;;;;;;;13.28;32.28;102148.84;5050558;28;20043;-86
2022/04/01 00:04:36;;;;;;;10.30;4.15;;;;;;;13.43;31.99;102147.78;5050735;28;20448;-85
2022/04/01 00:07:03;;;;;;;12.40;4.10;;;;;;;13.37;32.19;102146.22;5050524;28;20372;-85
2022/04/01 00:09:28;;;;;;;13.80;4.70;;;;;;;13.37;32.10;102145.41;5050522;28;20025;-85
2022/04/01 00:11:54;;;;;;;8.48;3.92;;;;;;;13.34;32.20;102141.34;5050384;28;20029;-86
2022/04/01 00:14:20;;;;;;;8.10;4.03;;;;;;;13.35;32.26;102147.66;5051736;28;20033;-86
2022/04/01 00:16:45;;;;;;;12.02;5.25;;;;;;;13.31;32.13;102144.72;5050384;28;20024;-87
2022/04/01 00:19:12;;;;;;;9.45;4.70;;;;;;;13.27;32.64;102149.13;5050423;28;20041;-86
2022/04/01 00:21:38;;;;;;;17.48;5.03;;;;;;;13.16;32.64;102151.19;5050353;28;20121;-86
2022/04/01 00:24:04;;;;;;;6.13;3.33;;;;;;;13.18;32.48;102150.91;5050465;28;20052;-85
2022/04/01 00:26:30;;;;;;;7.88;3.83;;;;;;;13.19;32.05;102149.78;5050303;28;20044;-86
2022/04/01 00:28:55;;;;;;;8.88;3.97;;;;;;;13.10;32.58;102146.88;5050327;28;20036;-87
2022/04/01 00:31:21;;;;;;;6.90;3.20;;;;;;;13.02;32.28;102147.56;5050188;28;20032;-86
2022/04/01 00:33:47;;;;;;;12.82;4.60;;;;;;;12.97;32.62;102150.34;5050128;28;20060;-86
2022/04/01 00:36:13;;;;;;;7.85;3.22;;;;;;;12.95;32.86;102152.59;5050064;28;20706;-85
2022/04/01 00:38:39;;;;;;;9.02;3.13;;;;;;;12.98;32.82;102155.53;5050083;28;20024;-86
2022/04/01 00:41:05;;;;;;;9.95;3.08;;;;;;;12.91;32.64;102154.28;5049675;28;20486;-86
2022/04/01 00:43:34;;;;;;;9.10;3.25;;;;;;;12.74;33.33;102155.56;5049973;28;20064;-85
2022/04/01 00:46:00;;;;;;;7.70;3.05;;;;;;;12.59;33.75;102149.47;5050039;28;20471;-85
2022/04/01 00:48:27;;;;;;;7.05;2.53;;;;;;;12.65;33.45;102143.63;5049975;28;20029;-86
2022/04/01 00:50:54;;;;;;;6.15;2.70;;;;;;;12.68;33.54;102150.44;5049868;28;20031;-85
2022/04/01 00:53:21;;;;;;;8.00;2.88;;;;;;;12.56;33.68;102150.88;5049805;28;20025;-85
2022/04/01 00:55:47;;;;;;;7.63;3.28;;;;;;;12.59;33.40;102142.06;5049778;28;20496;-84
2022/04/01 00:58:13;;;;;;;7.82;2.80;;;;;;;12.43;34.03;102141.41;5049910;28;20090;-85
2022/04/01 01:00:39;;;;;;;7.80;2.75;;;;;;;12.53;33.99;102143.22;5049683;28;20028;-85
2022/04/01 01:03:05;;;;;;;9.65;2.80;;;;;;;12.54;33.42;102139.34;5049634;28;20396;-84
2022/04/01 01:05:32;;;;;;;6.93;2.67;;;;;;;12.38;34.30;102135.16;5049538;28;20032;-84
2022/04/01 01:07:58;;;;;;;7.43;3.38;;;;;;;12.24;34.53;102135.03;5049620;28;20040;-84
2022/04/01 01:10:25;;;;;;;10.10;3.13;;;;;;;12.15;34.94;102132.09;5048496;28;20501;-84
2022/04/01 01:12:51;;;;;;;8.15;2.60;;;;;;;11.78;35.74;102134.63;5049379;28;20056;-84
2022/04/01 01:15:18;;;;;;;4.80;2.80;;;;;;;11.97;35.31;102135.59;5049421;28;20575;-83
2022/04/01 01:17:45;;;;;;;7.32;3.13;;;;;;;11.99;35.33;102132.56;5050583;28;20100;-84
2022/04/01 01:20:15;;;;;;;10.55;3.63;;;;;;;11.92;35.34;102130.97;5050446;28;20029;-85
2022/04/01 01:22:47;;;;;;;5.20;2.85;;;;;;;11.35;36.51;102132.50;5049296;28;20041;-84
2022/04/01 01:25:13;;;;;;;9.07;3.33;;;;;;;11.71;36.01;102131.41;5049355;28;20031;-84
2022/04/01 01:27:43;;;;;;;6.07;2.92;;;;;;;11.88;35.64;102127.19;5049290;28;20420;-84
2022/04/01 01:30:10;;;;;;;9.30;2.65;;;;;;;12.04;35.18;102132.53;5049356;28;20025;-84
2022/04/01 01:32:37;;;;;;;6.30;2.90;;;;;;;11.96;35.31;102133.97;5048833;28;20041;-84
2022/04/01 01:35:05;;;;;;;6.63;2.67;;;;;;;11.99;35.22;102133.38;5050198;28;20021;-84
2022/04/01 01:37:31;;;;;;;9.60;3.60;;;;;;;12.01;35.22;102131.16;5048959;28;20025;-84
2022/04/01 01:39:56;;;;;;;9.75;3.60;;;;;;;11.94;35.48;102137.00;5048983;28;20483;-83
2022/04/01 01:42:22;;;;;;;7.38;3.13;;;;;;;11.79;35.64;102130.78;5048744;28;20052;-85
2022/04/01 01:44:48;;;;;;;8.75;3.65;;;;;;;11.74;35.89;102134.41;5050278;27;20028;-86
2022/04/01 01:47:13;;;;;;;7.47;3.08;;;;;;;11.99;35.43;102135.28;5048867;28;20056;-83
2022/04/01 01:54:42;;;;;;;6.10;2.95;;;;;;;12.10;35.06;102134.91;5049918;28;20029;-82
2022/04/01 01:55:11;;;;;;;6.32;2.92;;;;;;;12.02;35.08;102135.56;5033362;28;20040;-84
2022/04/01 01:57:37;;;;;;;6.65;2.85;;;;;;;11.99;35.17;102136.13;5036168;28;20017;-85
2022/04/01 02:00:10;;;;;;;8.48;3.15;;;;;;;11.59;35.87;102146.28;5032394;28;20030;-84
2022/04/01 02:02:38;;;;;;;5.53;3.17;;;;;;;11.76;35.79;102145.06;5039546;28;20493;-84
2022/04/01 02:05:07;;;;;;;8.20;3.72;;;;;;;11.83;35.80;102142.84;5041667;28;20025;-84
2022/04/01 02:07:33;;;;;;;9.52;3.72;;;;;;;11.79;35.64;102147.22;5037236;28;20106;-85
2022/04/01 02:09:59;;;;;;;9.25;3.28;;;;;;;11.79;35.82;102150.78;5039259;28;20532;-84
2022/04/01 02:12:24;;;;;;;8.48;2.92;;;;;;;11.78;35.92;102149.13;5037654;28;20033;-83
2022/04/01 02:14:50;;;;;;;8.75;3.67;;;;;;;11.88;35.52;102148.28;5040764;28;20025;-84
2022/04/01 02:17:15;;;;;;;10.13;3.55;;;;;;;11.64;36.13;102143.53;5039460;28;20120;-84
2022/04/01 02:19:41;;;;;;;9.95;4.15;;;;;;;11.66;36.12;102141.31;5036935;28;20068;-83
2022/04/01 02:22:07;;;;;;;6.78;3.17;;;;;;;11.69;36.10;102145.38;5039813;28;20029;-83
2022/04/01 02:24:33;;;;;;;6.85;3.63;;;;;;;11.77;35.83;102146.69;5039248;28;20566;-84
2022/04/01 02:26:59;;;;;;;8.27;3.83;;;;;;;11.74;35.85;102152.75;5032661;28;20061;-84
2022/04/01 02:29:25;;;;;;;6.93;3.22;;;;;;;11.91;35.40;102155.91;5037948;28;20033;-84
2022/04/01 02:31:52;;;;;;;6.97;3.17;;;;;;;11.80;35.82;102148.88;5044536;28;20025;-85
2022/04/01 02:34:20;;;;;;;8.10;3.50;;;;;;;11.89;35.44;102158.13;5032560;28;20021;-86
2022/04/01 02:36:46;;;;;;;6.78;3.15;;;;;;;11.92;35.54;102160.28;5045246;28;20030;-84
2022/04/01 02:39:11;;;;;;;6.30;3.33;;;;;;;11.78;35.63;102153.78;5052016;28;20033;-84
2022/04/01 02:41:37;;;;;;;7.68;3.15;;;;;;;11.99;35.10;102152.53;5042308;28;20048;-87
2022/04/01 02:44:09;;;;;;;7.38;2.92;;;;;;;11.99;35.30;102162.69;5043707;28;20029;-85
2022/04/01 02:46:40;;;;;;;10.63;3.40;;;;;;;11.75;35.62;102159.84;5043792;28;20108;-85
2022/04/01 02:49:07;;;;;;;6.03;2.95;;;;;;;11.42;36.39;102158.75;5038254;28;20126;-84
2022/04/01 02:51:39;;;;;;;11.63;3.53;;;;;;;11.88;35.52;102164.72;5042821;28;20033;-85
2022/04/01 02:54:06;;;;;;;11.55;4.20;;;;;;;11.84;35.60;102163.63;5041600;28;20021;-85
2022/04/01 02:56:33;;;;;;;7.63;4.22;;;;;;;11.65;35.97;102161.56;5040538;28;20029;-85
2022/04/01 02:59:07;;;;;;;7.53;3.38;;;;;;;11.78;35.72;102162.00;5043342;28;20018;-84
2022/04/01 03:01:35;;;;;;;8.00;3.20;;;;;;;11.80;35.72;102162.56;5041569;28;20436;-85
2022/04/01 03:04:02;;;;;;;8.10;3.05;;;;;;;11.87;35.87;102163.91;5042055;28;20021;-86
2022/04/01 03:06:27;;;;;;;8.63;2.80;;;;;;;11.77;35.68;102168.59;5033163;28;20026;-85
2022/04/01 03:08:53;;;;;;;5.88;2.50;;;;;;;11.61;36.10;102168.72;5044190;28;20030;-85
2022/04/01 03:11:19;;;;;;;8.38;2.83;;;;;;;11.90;35.38;102173.44;5039748;28;20021;-86
2022/04/01 03:13:45;;;;;;;8.68;2.83;;;;;;;11.88;35.43;102172.94;5041687;28;20025;-85
2022/04/01 03:16:12;;;;;;;7.18;3.40;;;;;;;11.90;35.38;102171.53;5042164;28;20189;-85
2022/04/01 03:18:40;;;;;;;8.88;2.78;;;;;;;11.89;35.47;102171.81;5037119;28;20030;-85
2022/04/01 03:21:12;;;;;;;6.15;3.10;;;;;;;11.68;35.85;102171.13;5043740;28;20029;-86
2022/04/01 03:23:39;;;;;;;10.00;3.42;;;;;;;11.73;35.74;102168.38;5051759;28;20032;-86
2022/04/01 03:26:06;;;;;;;5.95;3.78;;;;;;;11.39;36.40;102171.06;5038867;28;20062;-86
2022/04/01 03:28:33;;;;;;;5.32;3.22;;;;;;;11.38;36.65;102172.16;5050584;28;20479;-85
2022/04/01 03:30:59;;;;;;;5.47;2.25;;;;;;;11.29;36.84;102173.88;5047352;28;20023;-85
2022/04/01 03:33:25;;;;;;;6.10;2.75;;;;;;;10.87;37.76;102171.59;5050864;28;20025;-84
2022/04/01 03:35:51;;;;;;;4.13;2.70;;;;;;;11.07;37.49;102166.88;5050679;28;20048;-85
2022/04/01 03:38:16;;;;;;;6.43;3.00;;;;;;;11.11;37.49;102178.91;5052014;28;20550;-85
2022/04/01 03:40:47;;;;;;;6.18;2.60;;;;;;;11.25;37.16;102173.59;5050835;28;20024;-85
2022/04/01 03:43:12;;;;;;;8.80;3.08;;;;;;;11.31;37.06;102183.41;5050459;28;20086;-84
2022/04/01 03:45:44;;;;;;;12.10;3.67;;;;;;;11.27;37.25;102187.84;5052176;28;20113;-85
2022/04/01 03:48:17;;;;;;;9.38;3.08;;;;;;;11.42;36.79;102186.94;5050709;28;20036;-85
2022/04/01 03:50:46;;;;;;;4.95;2.50;;;;;;;11.48;36.46;102188.50;5052052;28;20029;-85
2022/04/01 03:53:14;;;;;;;8.90;3.25;;;;;;;11.21;37.39;102188.97;5052039;28;20033;-85
2022/04/01 03:55:45;;;;;;;6.45;3.03;;;;;;;11.35;37.24;102186.41;5051887;28;20035;-85
2022/04/01 03:58:14;;;;;;;6.03;3.13;;;;;;;11.29;37.16;102195.75;5050821;28;20025;-85
2022/04/01 04:00:42;;;;;;;6.25;2.58;;;;;;;11.38;37.17;102192.13;5051889;28;20029;-85
2022/04/01 04:03:10;;;;;;;6.53;2.83;;;;;;;11.44;36.79;102195.66;5050650;28;20013;-85
2022/04/01 04:05:38;;;;;;;6.90;3.05;;;;;;;11.35;37.00;102189.16;5050684;28;20025;-85
2022/04/01 04:08:11;;;;;;;6.05;2.38;;;;;;;11.11;37.62;102189.03;5050605;28;20395;-85
2022/04/01 04:10:37;;;;;;;7.78;2.17;;;;;;;11.13;37.47;102192.28;5050537;28;20031;-85
2022/04/01 04:13:06;;;;;;;6.43;2.85;;;;;;;11.07;37.85;102193.41;5050255;28;20089;-85
2022/04/01 04:15:58;;;;;;;6.28;3.03;;;;;;;11.07;37.96;102205.16;5050515;28;20475;-85
2022/04/01 04:18:31;;;;;;;5.68;2.90;;;;;;;11.23;37.55;102199.63;5051426;28;20032;-86
2022/04/01 04:21:10;;;;;;;12.82;3.65;;;;;;;11.11;37.79;102206.25;5051513;28;20105;-85
2022/04/01 04:23:54;;;;;;;7.87;2.63;;;;;;;11.30;37.28;102208.34;5050472;28;20405;-86
2022/04/01 04:26:24;;;;;;;6.15;2.50;;;;;;;11.16;37.54;102205.38;5050378;28;20273;-86
2022/04/01 04:28:56;;;;;;;4.22;2.63;;;;;;;11.40;36.94;102213.75;5050249;28;20021;-85
2022/04/01 04:31:29;;;;;;;7.10;2.45;;;;;;;11.36;36.95;102213.50;5050198;28;20040;-84
2022/04/01 04:33:56;;;;;;;8.70;3.70;;;;;;;11.26;37.35;102219.03;5050275;28;20073;-87
2022/04/01 04:36:33;;;;;;;3.83;2.47;;;;;;;11.43;36.98;102218.66;5050168;28;20021;-85
2022/04/01 04:39:02;;;;;;;9.10;2.40;;;;;;;11.38;37.09;102215.94;5050241;28;20380;-86
2022/04/01 04:41:28;;;;;;;7.45;2.75;;;;;;;11.44;36.81;102220.28;5050781;28;20395;-86
2022/04/01 04:43:54;;;;;;;5.03;2.70;;;;;;;11.38;36.80;102221.41;5050132;28;20546;-85
2022/04/01 04:46:21;;;;;;;9.02;4.25;;;;;;;11.28;36.97;102227.78;5050120;28;20025;-86
2022/04/01 04:48:49;;;;;;;9.00;2.83;;;;;;;11.24;37.30;102229.44;5051078;28;20479;-84
2022/04/01 04:51:21;;;;;;;6.68;3.03;;;;;;;11.18;37.37;102232.47;5049800;28;20029;-85
2022/04/01 04:53:47;;;;;;;6.68;2.60;;;;;;;10.94;37.88;102232.28;5050995;27;20037;-85
2022/04/01 04:56:13;;;;;;;5.47;2.25;;;;;;;10.97;37.90;102237.22;5049787;28;20371;-86
2022/04/01 04:58:40;;;;;;;7.72;2.67;;;;;;;10.88;38.06;102220.53;5049605;28;20461;-85
2022/04/01 05:01:47;;;;;;;10.65;2.30;;;;;;;11.05;37.44;102229.25;5051163;28;20029;-85
2022/04/01 05:04:25;;;;;;;4.25;2.13;;;;;;;11.21;37.24;102238.22;5049832;28;20553;-85
2022/04/01 05:07:30;;;;;;;4.38;2.22;;;;;;;11.04;37.76;102237.75;5049703;28;20050;-86
2022/04/01 05:10:36;;;;;;;4.70;2.22;;;;;;;10.98;38.00;102241.59;5049632;28;20021;-84
2022/04/01 05:13:15;;;;;;;5.70;2.50;;;;;;;11.27;37.33;102245.28;5054765;28;20028;-85
2022/04/01 05:15:42;;;;;;;6.03;3.00;;;;;;;11.31;37.03;102249.09;5052781;28;20029;-85
2022/04/01 05:18:29;;;;;;;13.13;3.88;;;;;;;11.02;37.68;102254.41;5049574;28;20476;-85
2022/04/01 05:21:01;;;;;;;8.43;3.10;;;;;;;11.29;37.22;102261.44;5049732;28;20025;-86
2022/04/01 05:23:29;;;;;;;13.10;3.35;;;;;;;11.38;36.82;102259.75;5049592;28;20017;-85
2022/04/01 05:26:00;;;;;;;10.93;2.95;;;;;;;11.24;36.94;102258.72;5049532;28;20032;-85
2022/04/01 05:28:34;;;;;;;10.82;3.05;;;;;;;11.39;36.64;102269.56;5049748;28;20021;-86
2022/04/01 05:31:08;;;;;;;15.90;3.45;;;;;;;11.36;36.88;102270.97;5049609;28;20104;-85
2022/04/01 05:33:50;;;;;;;13.85;3.20;;;;;;;11.38;36.85;102276.97;5049357;28;20029;-84
2022/04/01 05:36:17;;;;;;;12.65;3.60;;;;;;;11.28;36.90;102277.03;5049679;28;20025;-86
2022/04/01 05:38:44;;;;;;;9.70;2.30;;;;;;;11.30;36.99;102276.75;5049489;28;20029;-86
2022/04/01 05:41:10;;;;;;;7.13;2.58;;;;;;;11.35;36.92;102274.81;5049356;28;20052;-86
2022/04/01 05:43:39;;;;;;;9.18;2.63;;;;;;;11.36;36.94;102279.19;5049435;28;20479;-86
2022/04/01 05:46:05;;;;;;;7.03;2.60;;;;;;;11.33;37.05;102278.91;5049227;28;20021;-85
2022/04/01 05:48:36;;;;;;;7.28;3.60;;;;;;;11.25;37.33;102274.84;5049107;28;20104;-85
2022/04/01 05:51:04;;;;;;;8.15;2.20;;;;;;;11.34;37.21;102281.38;5050451;28;20539;-85
2022/04/01 05:53:32;;;;;;;14.18;4.28;;;;;;;11.43;36.96;102284.34;5048850;28;20029;-84
2022/04/01 05:55:59;;;;;;;15.20;4.55;;;;;;;11.46;36.87;102278.31;5049230;28;20056;-85
2022/04/01 05:58:26;;;;;;;33.05;5.60;;;;;;;11.40;36.81;102290.38;5048863;28;20598;-83
2022/04/01 06:01:19;;;;;;;25.83;4.93;;;;;;;11.37;37.07;102288.22;5049040;28;20025;-85
2022/04/01 06:04:26;;;;;;;12.38;2.45;;;;;;;11.28;37.27;102301.66;5048963;28;20375;-84
2022/04/01 06:07:18;;;;;;;6.28;2.80;;;;;;;11.27;37.15;102305.50;5048795;27;20384;-83
2022/04/01 06:10:01;;;;;;;3.60;1.90;;;;;;;11.19;37.43;102300.59;5035137;28;20089;-85
2022/04/01 06:12:52;;;;;;;8.73;2.50;;;;;;;11.32;37.26;102310.09;5048978;28;20033;-86
2022/04/01 06:15:45;;;;;;;9.48;2.80;;;;;;;11.41;37.07;102305.72;5049185;28;20029;-88
2022/04/01 06:18:33;;;;;;;13.05;3.13;;;;;;;11.35;37.21;102309.56;5048820;28;20033;-85
2022/04/01 06:21:05;;;;;;;12.82;3.50;;;;;;;11.35;37.46;102306.84;5047963;27;20403;-86
2022/04/01 06:23:49;;;;;;;10.55;2.60;;;;;;;11.38;37.59;102312.56;5050091;28;20032;-86
2022/04/01 06:26:16;;;;;;;7.20;2.70;;;;;;;11.54;36.86;102307.81;5049125;28;20028;-85
2022/04/01 06:28:53;;;;;;;7.93;2.78;;;;;;;11.55;36.84;102316.84;5048648;28;20032;-85
2022/04/01 06:31:25;;;;;;;6.95;2.35;;;;;;;11.54;37.09;102316.03;5048571;28;20029;-86
2022/04/01 06:34:08;;;;;;;5.30;1.92;;;;;;;11.44;37.49;102316.09;5049937;28;20040;-86
2022/04/01 06:36:55;;;;;;;13.88;4.05;;;;;;;11.53;37.48;102324.53;5048734;28;20116;-84
2022/04/01 06:39:50;;;;;;;12.10;2.78;;;;;;;11.56;37.43;102321.22;5048656;28;20059;-86
2022/04/01 06:42:22;;;;;;;12.75;4.38;;;;;;;11.77;37.13;102321.94;5047985;27;20056;-80
2022/04/01 06:44:48;;;;;;;12.48;3.58;;;;;;;11.83;37.13;102335.38;5047775;28;20088;-77
2022/04/01 06:47:14;;;;;;;19.13;5.63;;;;;;;11.83;37.11;102335.38;5049107;28;20463;-80
2022/04/01 06:49:41;;;;;;;7.32;2.83;;;;;;;11.97;37.30;102330.09;5049111;28;20081;-84
2022/04/01 06:52:07;;;;;;;16.83;4.60;;;;;;;12.03;37.20;102328.13;5048943;28;20029;-82
2022/04/01 06:54:33;;;;;;;45.53;8.30;;;;;;;11.98;37.45;102339.13;5047521;28;20029;-75
2022/04/01 06:56:58;;;;;;;11.25;2.38;;;;;;;12.07;37.40;102338.22;5048851;28;20036;-83
2022/04/01 06:59:24;;;;;;;27.20;6.55;;;;;;;12.26;37.03;102345.78;5048857;28;20383;-83
2022/04/01 07:01:50;;;;;;;12.75;3.33;;;;;;;12.45;36.71;102338.50;5049044;28;20028;-76
2022/04/01 07:04:15;;;;;;;15.73;4.18;;;;;;;12.64;36.41;102341.38;5048661;28;20036;-75
2022/04/01 07:06:41;;;;;;;42.85;8.15;;;;;;;12.66;36.63;102347.38;5048858;28;20036;-72
2022/04/01 07:09:07;;;;;;;21.33;5.72;;;;;;;12.87;36.05;102346.09;5052255;28;20052;-86
2022/04/01 07:11:34;;;;;;;27.48;5.43;;;;;;;12.93;36.24;102346.84;5050985;28;20040;-82
2022/04/01 07:14:03;;;;;;;18.27;4.13;;;;;;;12.96;36.15;102346.25;5050781;28;20490;-81
2022/04/01 07:16:28;;;;;;;22.17;4.97;;;;;;;13.12;35.90;102347.75;5050966;27;20067;-80
2022/04/01 07:18:54;;;;;;;28.30;5.70;;;;;;;13.16;36.04;102343.31;5051926;28;20056;-81
2022/04/01 07:21:20;;;;;;;31.88;5.72;;;;;;;13.18;36.00;102345.75;5052743;28;20029;-78
2022/04/01 07:23:48;;;;;;;21.30;5.75;;;;;;;13.31;35.87;102347.84;5052319;28;20502;-86
2022/04/01 07:26:13;;;;;;;39.95;9.15;;;;;;;13.22;36.14;102352.31;5045138;28;20487;-83
2022/04/01 07:28:40;;;;;;;50.72;9.02;;;;;;;13.37;35.85;102354.88;5049344;28;20033;-81
2022/04/01 07:33:49;;;;;;;37.53;6.93;;;;;;;13.58;35.74;102366.44;5035877;28;20566;-81
2022/04/01 07:36:15;;;;;;;28.52;21.15;;;;;;;13.74;35.29;102362.41;5030716;28;20034;-81
2022/04/01 07:38:40;;;;;;;18.50;3.25;;;;;;;13.81;35.62;102365.59;5029865;28;20526;-82
2022/04/01 07:41:06;;;;;;;18.65;5.00;;;;;;;13.91;35.55;102363.84;5029803;28;20064;-82
2022/04/01 07:43:32;;;;;;;4.78;2.30;;;;;;;14.02;35.13;102373.56;5030868;28;20033;-82
2022/04/01 07:45:58;;;;;;;11.52;2.50;;;;;;;14.14;35.24;102379.44;5033226;28;20499;-82
2022/04/01 07:48:23;;;;;;;14.50;3.28;;;;;;;14.21;35.20;102385.41;5043816;27;20025;-84
2022/04/01 07:50:49;;;;;;;14.27;3.45;;;;;;;14.15;35.21;102383.84;5040235;28;20383;-85
2022/04/01 07:53:16;;;;;;;11.90;3.03;;;;;;;14.29;34.91;102383.91;5040857;28;20560;-83
2022/04/01 07:55:48;;;;;;;3.88;2.28;;;;;;;14.18;34.91;102382.41;5038862;28;20053;-83
2022/04/01 07:58:19;;;;;;;4.20;1.80;;;;;;;14.05;34.92;102381.22;5042982;28;20066;-85
2022/04/01 08:00:45;;;;;;;11.05;2.90;;;;;;;14.53;34.47;102394.84;5038170;28;20028;-83
2022/04/01 08:03:11;;;;;;;17.98;3.20;;;;;;;14.60;34.08;102393.34;5040749;28;20422;-84
2022/04/01 08:05:37;;;;;;;9.02;2.70;;;;;;;14.64;34.07;102388.84;5039394;28;20029;-82
2022/04/01 08:08:03;;;;;;;12.43;2.75;;;;;;;14.60;34.37;102389.78;5041262;28;20021;-83
2022/04/01 08:10:29;;;;;;;24.00;5.55;;;;;;;14.39;34.55;102392.81;5037932;28;20032;-82
2022/04/01 08:12:55;;;;;;;31.00;5.45;;;;;;;14.55;34.55;102389.84;5040414;28;20131;-82
2022/04/01 08:15:21;;;;;;;12.57;2.78;;;;;;;14.69;33.88;102399.78;5041827;28;20032;-83
2022/04/01 08:17:47;;;;;;;7.85;2.00;;;;;;;14.66;34.07;102397.66;5036326;28;20021;-85
2022/04/01 08:20:12;;;;;;;7.45;2.42;;;;;;;14.75;34.04;102402.47;5039548;28;20032;-83
2022/04/01 08:22:40;;;;;;;5.43;1.73;;;;;;;14.57;34.31;102399.44;5044086;28;20025;-84
2022/04/01 08:25:06;;;;;;;9.13;2.00;;;;;;;14.64;34.08;102404.53;5039753;28;20013;-82
2022/04/01 08:27:33;;;;;;;3.40;1.75;;;;;;;14.82;33.91;102403.72;5037236;28;20053;-85
2022/04/01 08:29:59;;;;;;;11.60;3.80;;;;;;;14.25;34.50;102402.91;5037914;28;20041;-83
2022/04/01 08:32:29;;;;;;;8.73;2.45;;;;;;;14.69;33.89;102412.72;5036068;28;20091;-83
2022/04/01 08:34:55;;;;;;;3.50;1.60;;;;;;;14.75;33.75;102411.53;5035604;28;20029;-82
2022/04/01 08:37:21;;;;;;;6.82;2.10;;;;;;;14.44;34.39;102413.94;5039892;28;20058;-83
2022/04/01 08:39:47;;;;;;;8.35;2.35;;;;;;;15.10;33.62;102412.00;5039342;28;20052;-82
2022/04/01 08:42:14;;;;;;;7.80;3.00;;;;;;;15.11;33.49;102411.69;5050637;28;20041;-87
2022/04/01 08:44:41;;;;;;;11.45;3.72;;;;;;;15.31;33.56;102404.19;5049407;28;20025;-80
2022/04/01 08:47:10;;;;;;;6.53;2.35;;;;;;;15.32;32.93;102403.88;5050780;28;20390;-83
2022/04/01 08:49:36;;;;;;;8.33;2.67;;;;;;;15.21;33.60;102406.03;5050443;28;20021;-81
2022/04/01 08:52:04;;;;;;;10.82;2.83;;;;;;;15.17;33.42;102407.75;5050391;28;20474;-82
2022/04/01 08:54:34;;;;;;;8.98;2.90;;;;;;;15.53;33.00;102409.81;5048031;28;20101;-82
2022/04/01 08:57:00;;;;;;;7.05;1.80;;;;;;;15.52;32.91;102413.69;5049175;28;20016;-82
2022/04/01 08:59:29;;;;;;;6.13;1.55;;;;;;;15.34;32.67;102412.69;5049519;28;20021;-82
2022/04/01 09:02:04;;;;;;;4.40;1.63;;;;;;;15.48;32.58;102413.47;5048329;28;20202;-81
2022/04/01 09:04:29;;;;;;;9.68;2.97;;;;;;;15.31;32.97;102418.78;5049503;28;20100;-81
2022/04/01 09:06:55;;;;;;;5.72;2.63;;;;;;;15.34;32.67;102409.09;5047450;28;20120;-81
2022/04/01 09:09:26;;;;;;;12.43;2.67;;;;;;;15.03;32.07;102417.09;5047416;28;20021;-81
2022/04/01 09:12:05;;;;;;;5.75;2.10;;;;;;;15.03;32.00;102423.41;5047279;28;20573;-82
2022/04/01 09:14:30;;;;;;;6.28;1.70;;;;;;;15.42;32.09;102420.25;5047340;28;20029;-81
2022/04/01 09:16:56;;;;;;;8.38;2.40;;;;;;;15.25;31.64;102414.47;5049398;28;20103;-80
2022/04/01 09:19:30;;;;;;;5.38;1.80;;;;;;;15.27;31.12;102406.75;5050141;28;20025;-83
2022/04/01 09:21:55;;;;;;;4.72;1.88;;;;;;;15.35;30.63;102419.81;5049904;28;20462;-80
2022/04/01 09:24:21;;;;;;;3.72;1.48;;;;;;;15.21;30.95;102424.50;5050050;28;20100;-81
2022/04/01 09:26:54;;;;;;;4.65;1.65;;;;;;;15.51;30.38;102417.59;5050170;28;20523;-82
2022/04/01 09:29:20;;;;;;;4.40;2.40;;;;;;;15.56;30.31;102417.47;5049523;28;20033;-80
2022/04/01 09:31:53;;;;;;;22.48;4.97;;;;;;;15.65;30.34;102412.94;5048048;28;20032;-82
2022/04/01 09:34:18;;;;;;;6.35;1.90;;;;;;;15.24;31.05;102416.44;5049853;28;20025;-80
2022/04/01 09:36:44;;;;;;;4.47;1.83;;;;;;;15.38;30.04;102407.38;5048614;28;20120;-80
2022/04/01 09:39:11;;;;;;;5.07;2.40;;;;;;;15.67;29.90;102405.16;5050010;28;20112;-81
2022/04/01 09:41:59;;;;;;;3.70;2.08;;;;;;;15.90;29.79;102395.03;5046611;28;20045;-81
2022/04/01 09:44:36;;;;;;;2.50;1.50;;;;;;;15.59;30.00;102407.78;5029689;28;20036;-81
2022/04/01 09:47:05;;;;;;;6.07;1.90;;;;;;;15.40;30.95;102416.13;5031978;28;20033;-80
2022/04/01 09:49:39;;;;;;;3.95;2.08;;;;;;;15.30;30.28;102406.13;5038308;28;20025;-80
2022/04/01 09:52:10;;;;;;;4.20;1.67;;;;;;;15.65;30.25;102407.41;5045795;27;20036;-81
2022/04/01 09:54:47;;;;;;;5.18;2.25;;;;;;;16.01;30.55;102398.38;5035971;28;20025;-80
2022/04/01 09:57:14;;;;;;;5.75;1.67;;;;;;;16.01;30.63;102412.16;5042606;28;20124;-82
2022/04/01 09:59:42;;;;;;;4.43;1.95;;;;;;;15.65;30.83;102420.38;5037663;28;20040;-82
2022/04/01 10:02:07;;;;;;;5.57;2.33;;;;;;;15.96;29.41;102426.06;5039034;28;20391;-82
2022/04/01 10:04:33;;;;;;;14.55;2.95;;;;;;;16.22;29.44;102429.06;5028019;28;20017;-80
2022/04/01 10:07:01;;;;;;;6.13;2.03;;;;;;;15.81;29.82;102430.78;5028773;28;20026;-81
2022/04/01 10:09:28;;;;;;;10.95;2.38;;;;;;;15.49;29.97;102434.44;5028057;28;20026;-81
2022/04/01 10:11:57;;;;;;;3.72;1.52;;;;;;;15.85;29.67;102433.72;5046293;28;20103;-81
2022/04/01 10:14:27;;;;;;;2.60;1.30;;;;;;;15.82;29.02;102424.13;5049364;28;20082;-80
2022/04/01 10:16:55;;;;;;;3.92;1.75;;;;;;;16.11;28.57;102425.72;5046145;28;20121;-81
2022/04/01 10:19:41;;;;;;;3.33;1.27;;;;;;;15.98;28.59;102423.81;5047350;27;20092;-80
2022/04/01 10:22:07;;;;;;;3.53;1.60;;;;;;;16.57;27.85;102417.22;5047159;28;20041;-80
2022/04/01 10:24:40;;;;;;;5.80;1.73;;;;;;;16.20;26.66;102412.84;5047297;27;20387;-80
2022/04/01 10:27:26;;;;;;;2.80;1.13;;;;;;;16.56;26.70;102421.09;5047291;27;20104;-80
2022/04/01 10:29:56;;;;;;;4.53;1.60;;;;;;;16.23;26.11;102425.19;5047183;28;20037;-80
2022/04/01 10:33:00;;;;;;;;;;;;;;;16.04;26.58;102430.84;5048107;28;20383;-80
2022/04/01 10:35:38;;;;;;;5.68;1.60;;;;;;;16.25;26.79;102422.94;5089861;28;19912;-81
2022/04/01 10:38:06;;;;;;;4.78;2.08;;;;;;;16.23;27.60;102416.91;5089774;28;20028;-81
2022/04/01 10:40:34;;;;;;;5.97;1.42;;;;;;;16.51;26.96;102429.50;5066490;28;20048;-80
2022/04/01 10:43:29;;;;;;;2.65;1.20;;;;;;;16.48;25.44;102426.56;5051801;28;20128;-80
2022/04/01 10:46:00;;;;;;;4.13;1.20;;;;;;;16.89;24.52;102418.09;5042465;28;20037;-80
2022/04/01 10:51:39;;;;;;;2.65;1.25;;;;;;;16.79;24.48;102418.38;5052313;28;20497;-81
2022/04/01 10:54:13;;;;;;;2.97;1.00;;;;;;;16.72;24.14;102420.75;5050898;28;20431;-81
2022/04/01 10:57:05;;;;;;;2.08;1.20;;;;;;;16.92;24.51;102411.94;5052591;28;20021;-80
2022/04/01 10:59:42;;;;;;;2.15;1.30;;;;;;;16.98;24.90;102399.63;5052144;28;20058;-80
2022/04/01 11:02:19;;;;;;;4.10;1.30;;;;;;;16.90;24.47;102392.13;5052058;28;20588;-80
2022/04/01 11:04:48;;;;;;;2.63;1.48;;;;;;;17.06;24.39;102395.28;5051063;28;20029;-81
2022/04/01 11:07:36;;;;;;;6.38;1.65;;;;;;;16.85;23.77;102395.84;5050734;28;20070;-80
2022/04/01 11:10:07;;;;;;;9.20;2.05;;;;;;;17.25;23.35;102397.84;5051870;28;20145;-81
2022/04/01 11:12:35;;;;;;;4.65;1.38;;;;;;;16.54;23.83;102392.16;5050468;28;20025;-81
2022/04/01 11:15:21;;;;;;;5.93;1.45;;;;;;;17.06;23.03;102392.53;5051860;28;20021;-81
2022/04/01 11:17:47;;;;;;;23.92;4.05;;;;;;;17.35;24.23;102392.03;5051722;28;20025;-80
2022/04/01 11:20:19;;;;;;;4.50;1.20;;;;;;;17.46;23.76;102385.09;5051735;28;20028;-81
2022/04/01 11:22:52;;;;;;;2.67;1.27;;;;;;;17.17;23.83;102386.44;5051671;28;20036;-80
2022/04/01 11:25:32;;;;;;;7.88;1.50;;;;;;;16.85;24.18;102384.81;5051817;28;20360;-80
2022/04/01 11:28:08;;;;;;;1.40;0.90;;;;;;;17.18;23.85;102370.66;5051656;28;20093;-80
2022/04/01 11:30:40;;;;;;;1.40;1.10;;;;;;;17.61;23.55;102384.66;5050458;28;20379;-81
2022/04/01 11:33:16;;;;;;;3.28;1.00;;;;;;;17.31;24.23;102380.81;5051429;28;20112;-80
2022/04/01 11:35:44;;;;;;;6.45;1.17;;;;;;;16.71;24.37;102380.50;5051390;28;20021;-81
2022/04/01 11:38:20;;;;;;;10.57;2.67;;;;;;;17.32;24.93;102382.44;5051371;28;20033;-81
2022/04/01 11:40:56;;;;;;;3.08;1.30;;;;;;;17.56;24.81;102384.78;5051283;28;20364;-80
2022/04/01 11:43:23;;;;;;;3.05;1.55;;;;;;;16.96;25.15;102374.28;5051156;28;20045;-80
2022/04/01 11:46:03;;;;;;;3.50;1.15;;;;;;;17.23;24.63;102394.56;5051309;28;20025;-80
2022/04/01 11:48:41;;;;;;;4.93;1.35;;;;;;;17.52;23.74;102388.50;5051268;28;20021;-79